Terminal Aerodrome Forecast
Issued by NWS

Home | Current Version | Previous Version | Text Only | Print | Product List | Glossary On
Versions: 1 2 3 4 5 6 7 8 9 10 11 12 13 14 15 16 17 18 19
000
FTUS43 KMPX 250500
TAFAXN
TAF
KAXN 250528Z 2506/2606 24004KT 2SM BR SCT002 SCT090
      TEMPO 2506/2510 4SM BR
     FM251400 31008KT P6SM SCT020 BKN035
     FM251800 32010KT P6SM SCT100
     FM260000 02007KT P6SM SKC=

USA.gov is the U.S. government's official web portal to all federal, state and local government web resources and services.